Time;durP1;ratioP1;P1;durP2;ratioP2;P2;SDS_P1;SDS_P2;PMS_P1;PMS_P2;Temp;Humidity;BMP_temperature;BMP_pressure;BME280_temperature;BME280_humidity;BME280_pressure;Samples;Min_cycle;Max_cycle;Signal;HPM_P1;HPM_P2
2022/05/22 00:01:57;;;;;;;3.03;1.60;;;18.80;58.60;;;;;;4970137;28;20023;-74
2022/05/22 00:04:23;;;;;;;2.80;1.60;;;18.80;58.60;;;;;;4970507;28;20130;-74
2022/05/22 00:06:49;;;;;;;2.30;1.73;;;18.80;58.70;;;;;;4971190;28;20113;-74
2022/05/22 00:09:15;;;;;;;2.80;1.58;;;18.80;58.70;;;;;;4971384;28;20039;-74
2022/05/22 00:11:41;;;;;;;2.83;1.70;;;18.70;58.70;;;;;;4953159;28;20542;-74
2022/05/22 00:14:07;;;;;;;2.33;1.52;;;18.70;58.80;;;;;;4954216;28;20030;-75
2022/05/22 00:16:37;;;;;;;2.88;1.90;;;18.70;58.80;;;;;;4970528;28;20451;-75
2022/05/22 00:19:06;;;;;;;3.28;1.60;;;18.70;58.80;;;;;;4977246;28;20062;-74
2022/05/22 00:21:33;;;;;;;2.88;1.70;;;18.60;58.80;;;;;;4970515;28;20089;-74
2022/05/22 00:23:59;;;;;;;2.85;1.60;;;18.60;58.90;;;;;;4971373;28;20131;-74
2022/05/22 00:26:24;;;;;;;2.95;1.60;;;18.50;58.90;;;;;;4970730;28;20114;-74
2022/05/22 00:28:53;;;;;;;2.55;1.60;;;18.50;58.90;;;;;;4971218;28;20126;-75
2022/05/22 00:31:19;;;;;;;3.70;1.70;;;18.50;59.00;;;;;;4970610;28;20062;-75
2022/05/22 00:33:45;;;;;;;2.88;1.55;;;18.50;59.00;;;;;;4969831;28;20023;-74
2022/05/22 00:36:11;;;;;;;3.58;1.92;;;18.50;59.00;;;;;;4969987;28;20087;-75
2022/05/22 00:38:37;;;;;;;3.00;1.75;;;18.40;59.00;;;;;;4943945;28;20126;-76
2022/05/22 00:41:05;;;;;;;2.53;1.80;;;18.40;59.10;;;;;;4970418;28;20122;-74
2022/05/22 00:43:38;;;;;;;3.47;1.80;;;18.40;59.10;;;;;;4953274;28;20029;-74
2022/05/22 00:46:06;;;;;;;2.63;1.70;;;18.30;59.10;;;;;;4970098;28;20026;-74
2022/05/22 00:48:33;;;;;;;2.15;1.63;;;18.30;59.20;;;;;;4969442;28;20026;-74
2022/05/22 00:51:07;;;;;;;3.38;1.98;;;18.30;59.20;;;;;;4971346;28;20050;-74
2022/05/22 00:53:38;;;;;;;2.90;1.80;;;18.30;59.30;;;;;;4953876;28;20031;-74
2022/05/22 00:56:07;;;;;;;3.47;1.90;;;18.20;59.20;;;;;;4976268;28;20034;-75
2022/05/22 00:58:35;;;;;;;2.30;1.55;;;18.20;59.30;;;;;;4969566;28;20030;-74
2022/05/22 01:01:02;;;;;;;2.85;1.70;;;18.10;59.30;;;;;;4970711;28;20030;-76
2022/05/22 01:03:28;;;;;;;2.38;1.70;;;18.10;59.30;;;;;;4971531;28;20027;-74
2022/05/22 01:06:26;;;;;;;3.58;1.80;;;18.10;59.30;;;;;;4946375;28;20026;-74
2022/05/22 01:08:57;;;;;;;1.88;1.70;;;18.00;59.40;;;;;;4970614;28;20079;-75
2022/05/22 01:11:30;;;;;;;2.50;1.73;;;18.00;59.30;;;;;;4971236;28;20442;-74
2022/05/22 01:14:13;;;;;;;2.47;1.77;;;18.00;59.40;;;;;;4969574;28;20042;-74
2022/05/22 01:16:39;;;;;;;2.35;1.70;;;17.90;59.40;;;;;;4943791;28;20033;-74
2022/05/22 01:19:23;;;;;;;3.47;1.88;;;17.90;59.40;;;;;;4953008;28;20023;-74
2022/05/22 01:21:59;;;;;;;2.53;1.92;;;17.80;59.50;;;;;;4968616;28;20498;-75
2022/05/22 01:24:27;;;;;;;2.88;2.00;;;17.80;59.50;;;;;;4963581;28;20031;-74
2022/05/22 01:26:55;;;;;;;2.03;1.50;;;17.80;59.50;;;;;;4969133;28;20102;-74
2022/05/22 01:29:26;;;;;;;2.37;1.63;;;17.80;59.60;;;;;;4969487;28;20027;-74
2022/05/22 01:31:52;;;;;;;2.40;1.65;;;17.70;59.50;;;;;;4937380;28;20638;-75
2022/05/22 01:34:19;;;;;;;2.67;1.58;;;17.70;59.60;;;;;;4959491;28;20448;-75
2022/05/22 01:36:46;;;;;;;3.78;1.95;;;17.70;59.60;;;;;;4969619;28;20042;-74
2022/05/22 01:39:12;;;;;;;2.63;1.67;;;17.60;59.70;;;;;;4953074;28;20039;-74
2022/05/22 01:41:58;;;;;;;3.05;1.70;;;17.60;59.70;;;;;;4951442;28;20027;-74
2022/05/22 01:44:24;;;;;;;2.83;1.60;;;17.50;59.70;;;;;;4969377;28;20035;-74
2022/05/22 01:46:50;;;;;;;2.92;1.77;;;17.50;59.70;;;;;;4953027;28;20054;-74
2022/05/22 01:49:16;;;;;;;1.92;1.77;;;17.50;59.70;;;;;;4970481;28;20062;-74
2022/05/22 01:51:43;;;;;;;2.33;1.63;;;17.50;59.80;;;;;;4968836;28;20464;-76
2022/05/22 01:54:11;;;;;;;3.90;2.20;;;17.50;59.80;;;;;;4969328;28;20035;-74
2022/05/22 01:56:39;;;;;;;2.45;1.80;;;17.40;59.90;;;;;;4953471;28;20038;-74
2022/05/22 01:59:06;;;;;;;2.83;1.80;;;17.40;59.80;;;;;;4968947;28;20031;-74
2022/05/22 02:01:38;;;;;;;3.70;1.92;;;17.40;59.90;;;;;;4969428;28;20077;-74
2022/05/22 02:04:05;;;;;;;2.35;2.00;;;17.40;59.90;;;;;;4963265;28;20050;-74
2022/05/22 02:06:34;;;;;;;2.58;1.67;;;17.30;59.90;;;;;;4953483;28;20033;-74
2022/05/22 02:09:08;;;;;;;1.77;1.60;;;17.30;60.00;;;;;;4969442;28;20031;-75
2022/05/22 02:11:39;;;;;;;2.60;1.73;;;17.30;60.00;;;;;;4953255;28;20487;-74
2022/05/22 02:14:05;;;;;;;3.15;1.80;;;17.20;60.00;;;;;;4952978;28;20070;-74
2022/05/22 02:16:31;;;;;;;1.90;1.60;;;17.20;60.00;;;;;;4949943;28;20062;-73
2022/05/22 02:18:57;;;;;;;2.70;1.70;;;17.10;60.00;;;;;;4963014;28;20461;-73
2022/05/22 02:21:26;;;;;;;3.05;1.80;;;17.10;60.10;;;;;;4970452;28;20027;-74
2022/05/22 02:23:52;;;;;;;2.50;1.75;;;17.10;60.10;;;;;;4971997;28;20123;-75
2022/05/22 02:26:18;;;;;;;1.80;1.48;;;17.00;60.10;;;;;;4956197;28;20691;-73
2022/05/22 02:28:46;;;;;;;2.60;1.77;;;17.00;60.10;;;;;;4954089;28;20027;-73
2022/05/22 02:31:12;;;;;;;2.65;1.63;;;17.00;60.10;;;;;;4953421;28;20026;-74
2022/05/22 02:33:40;;;;;;;2.50;1.50;;;17.00;60.10;;;;;;4956928;28;20482;-75
2022/05/22 02:36:13;;;;;;;2.95;1.90;;;17.00;60.20;;;;;;4972147;28;20386;-74
2022/05/22 02:38:40;;;;;;;2.53;1.70;;;16.90;60.20;;;;;;4988158;28;20894;-74
2022/05/22 02:41:10;;;;;;;3.83;1.90;;;16.90;60.20;;;;;;4956164;28;20026;-74
2022/05/22 02:43:38;;;;;;;2.08;1.63;;;16.90;60.30;;;;;;4972543;28;20034;-74
2022/05/22 02:46:13;;;;;;;2.13;1.55;;;16.80;60.20;;;;;;4939953;28;20039;-73
2022/05/22 02:48:39;;;;;;;;;;;16.80;60.40;;;;;;4972660;28;20022;-73
2022/05/22 02:51:09;;;;;;;2.83;1.63;;;16.80;60.20;;;;;;4971563;28;20380;-74
2022/05/22 02:53:36;;;;;;;2.72;1.83;;;16.80;60.20;;;;;;4972027;28;20033;-74
2022/05/22 02:56:20;;;;;;;2.25;1.90;;;16.70;60.30;;;;;;4971593;28;20133;-74
2022/05/22 02:58:59;;;;;;;2.33;1.73;;;16.70;60.40;;;;;;4973776;28;20037;-73
2022/05/22 03:01:28;;;;;;;1.90;1.75;;;16.70;60.40;;;;;;4937582;28;20275;-74
2022/05/22 03:03:54;;;;;;;3.08;1.73;;;16.60;60.40;;;;;;4946638;28;20508;-75
2022/05/22 03:06:38;;;;;;;2.92;1.90;;;16.60;60.50;;;;;;5003996;28;20043;-74
2022/05/22 03:09:11;;;;;;;2.17;1.90;;;16.60;60.50;;;;;;4955566;28;20019;-73
2022/05/22 03:11:38;;;;;;;3.58;2.10;;;16.50;60.50;;;;;;4967228;28;20042;-74
2022/05/22 03:14:04;;;;;;;2.67;1.90;;;16.50;60.60;;;;;;4971270;28;20042;-74
2022/05/22 03:16:31;;;;;;;2.53;1.90;;;16.50;60.60;;;;;;4971493;28;20061;-74
2022/05/22 03:19:10;;;;;;;2.40;1.92;;;16.50;60.70;;;;;;4957279;28;20031;-73
2022/05/22 03:21:37;;;;;;;3.00;2.00;;;16.40;60.60;;;;;;4955406;28;20034;-74
2022/05/22 03:24:03;;;;;;;2.75;2.03;;;16.40;60.70;;;;;;4956416;28;20058;-74
2022/05/22 03:26:29;;;;;;;3.92;2.30;;;16.40;60.70;;;;;;4955573;28;20034;-74
2022/05/22 03:28:55;;;;;;;2.42;1.80;;;16.40;60.70;;;;;;4971074;28;20042;-74
2022/05/22 03:31:21;;;;;;;2.25;1.90;;;16.30;60.70;;;;;;4969750;28;20456;-74
2022/05/22 03:33:48;;;;;;;3.63;2.03;;;16.30;60.70;;;;;;4939216;28;20030;-74
2022/05/22 03:36:14;;;;;;;2.58;1.70;;;16.20;60.70;;;;;;4970722;28;20057;-73
2022/05/22 03:38:40;;;;;;;2.88;2.08;;;16.30;60.80;;;;;;4954729;28;20447;-73
2022/05/22 03:41:06;;;;;;;2.90;1.88;;;16.20;60.80;;;;;;4971611;28;20035;-74
2022/05/22 03:43:39;;;;;;;2.70;1.95;;;16.20;60.80;;;;;;4970607;28;20039;-74
2022/05/22 03:46:17;;;;;;;2.80;1.80;;;16.20;60.90;;;;;;4971053;28;20034;-73
2022/05/22 03:48:46;;;;;;;4.03;2.22;;;16.20;60.90;;;;;;4971406;28;20122;-73
2022/05/22 03:51:12;;;;;;;2.92;1.90;;;16.10;61.10;;;;;;4970593;28;20559;-74
2022/05/22 03:53:38;;;;;;;2.90;2.15;;;16.10;60.90;;;;;;4970681;28;20543;-74
2022/05/22 03:56:15;;;;;;;2.78;1.98;;;16.10;61.00;;;;;;4970302;28;20033;-74
2022/05/22 03:58:42;;;;;;;2.85;2.03;;;16.10;61.00;;;;;;4970321;28;20063;-74
2022/05/22 04:01:08;;;;;;;3.00;2.05;;;16.00;61.00;;;;;;4970631;28;20030;-74
2022/05/22 04:03:42;;;;;;;3.30;1.98;;;16.00;61.00;;;;;;4961740;28;20023;-74
2022/05/22 04:06:10;;;;;;;3.10;1.83;;;16.00;61.00;;;;;;4954347;28;20349;-74
2022/05/22 04:08:37;;;;;;;2.60;1.85;;;16.00;61.10;;;;;;4952777;28;20019;-74
2022/05/22 04:11:13;;;;;;;2.83;1.80;;;16.00;61.10;;;;;;4938492;28;20375;-74
2022/05/22 04:13:39;;;;;;;2.90;2.05;;;15.90;61.10;;;;;;4977460;28;20030;-74
2022/05/22 04:16:06;;;;;;;2.75;1.70;;;15.90;61.10;;;;;;4954544;28;20371;-74
2022/05/22 04:18:33;;;;;;;2.47;1.80;;;15.90;61.20;;;;;;4970373;28;20034;-74
2022/05/22 04:20:59;;;;;;;3.53;2.20;;;15.90;61.30;;;;;;4969213;28;20088;-74
2022/05/22 04:26:38;;;;;;;3.05;2.00;;;15.90;61.30;;;;;;4967902;28;20427;-74
2022/05/22 04:29:07;;;;;;;3.03;2.17;;;15.80;61.20;;;;;;4954565;28;20046;-74
2022/05/22 04:31:33;;;;;;;3.28;1.98;;;15.80;61.30;;;;;;4963139;28;20037;-75
2022/05/22 04:34:19;;;;;;;2.45;1.80;;;15.70;61.30;;;;;;4939810;28;20031;-74
2022/05/22 04:36:45;;;;;;;2.72;2.00;;;15.70;61.40;;;;;;4951015;28;20039;-74
2022/05/22 04:39:28;;;;;;;3.50;2.10;;;15.80;61.50;;;;;;4954777;28;20102;-74
2022/05/22 04:42:02;;;;;;;2.28;2.00;;;15.70;61.50;;;;;;4969131;28;20031;-74
2022/05/22 04:44:28;;;;;;;3.25;2.28;;;15.70;61.50;;;;;;4953321;28;20035;-74
2022/05/22 04:47:09;;;;;;;2.30;1.90;;;15.70;61.60;;;;;;4969809;28;20027;-74
2022/05/22 04:49:35;;;;;;;2.30;1.85;;;15.60;61.50;;;;;;4954212;28;20367;-74
2022/05/22 04:52:02;;;;;;;2.42;2.00;;;15.70;61.70;;;;;;4955580;28;20034;-74
2022/05/22 04:54:28;;;;;;;2.80;2.13;;;15.60;61.70;;;;;;4969191;28;20105;-74
2022/05/22 04:57:01;;;;;;;3.75;2.35;;;15.60;61.70;;;;;;4968421;28;20035;-73
2022/05/22 04:59:27;;;;;;;3.08;2.20;;;15.60;61.80;;;;;;4969879;28;20026;-74
2022/05/22 05:01:53;;;;;;;2.67;2.08;;;15.60;61.80;;;;;;4969367;28;20023;-76
2022/05/22 05:04:26;;;;;;;3.28;2.25;;;15.60;61.80;;;;;;4951708;28;20487;-74
2022/05/22 05:07:05;;;;;;;2.47;1.92;;;15.60;61.80;;;;;;4941793;28;20023;-75
2022/05/22 05:09:54;;;;;;;3.83;2.17;;;15.60;61.90;;;;;;4969541;28;20026;-74
2022/05/22 05:12:44;;;;;;;2.15;1.90;;;15.60;61.90;;;;;;4947542;28;20054;-73
2022/05/22 05:15:13;;;;;;;3.20;2.38;;;15.60;62.00;;;;;;4951118;28;20121;-74
2022/05/22 05:17:48;;;;;;;2.85;2.17;;;15.50;62.00;;;;;;4954269;28;20381;-74
2022/05/22 05:20:22;;;;;;;3.00;1.95;;;15.60;62.10;;;;;;4953375;28;20044;-74
2022/05/22 05:22:51;;;;;;;2.70;2.10;;;15.60;62.10;;;;;;4953820;28;20105;-74
2022/05/22 05:25:23;;;;;;;3.05;2.38;;;15.60;62.10;;;;;;4953292;28;20078;-74
2022/05/22 05:27:49;;;;;;;3.15;2.25;;;15.50;62.10;;;;;;4967310;28;20541;-74
2022/05/22 05:30:19;;;;;;;3.17;2.10;;;15.60;62.20;;;;;;4961288;28;20303;-73
2022/05/22 05:32:46;;;;;;;3.25;2.42;;;15.60;62.20;;;;;;4953584;28;20043;-74
2022/05/22 05:35:32;;;;;;;2.78;2.40;;;15.60;62.30;;;;;;4955201;28;20171;-76
2022/05/22 05:37:59;;;;;;;2.80;2.40;;;15.60;62.30;;;;;;4953427;28;20035;-74
2022/05/22 05:40:26;;;;;;;3.33;2.80;;;15.60;62.30;;;;;;4952996;28;20101;-75
2022/05/22 05:42:52;;;;;;;3.88;2.78;;;15.60;62.30;;;;;;4969181;28;20027;-74
2022/05/22 05:45:19;;;;;;;4.82;3.35;;;15.60;62.40;;;;;;4968723;28;20069;-74
2022/05/22 05:47:59;;;;;;;4.85;2.97;;;15.50;62.30;;;;;;4965584;28;20506;-75
2022/05/22 05:50:47;;;;;;;4.05;3.08;;;15.60;62.40;;;;;;4968335;28;20019;-75
2022/05/22 05:53:30;;;;;;;3.03;2.67;;;15.60;62.40;;;;;;4967881;28;20027;-76
2022/05/22 05:56:16;;;;;;;4.28;3.13;;;15.60;62.40;;;;;;4971176;28;20472;-75
2022/05/22 05:59:05;;;;;;;3.53;2.83;;;15.60;62.40;;;;;;4969841;28;20039;-75
2022/05/22 06:01:35;;;;;;;4.50;2.63;;;15.60;62.40;;;;;;4969001;28;20069;-75
2022/05/22 06:04:03;;;;;;;4.22;3.38;;;15.60;62.50;;;;;;4956703;28;20085;-75
2022/05/22 06:06:29;;;;;;;4.15;3.10;;;15.60;62.50;;;;;;4958988;28;20494;-75
2022/05/22 06:08:58;;;;;;;3.95;3.08;;;15.60;62.50;;;;;;4973041;28;20468;-75
2022/05/22 06:11:30;;;;;;;3.45;2.67;;;15.60;62.50;;;;;;4955380;28;20062;-75
2022/05/22 06:14:02;;;;;;;3.95;3.13;;;15.60;62.50;;;;;;4972202;28;20039;-75
2022/05/22 06:16:28;;;;;;;3.90;2.63;;;15.70;62.60;;;;;;4940107;28;20085;-74
2022/05/22 06:19:01;;;;;;;4.43;3.00;;;15.70;62.60;;;;;;4954481;28;20467;-77
2022/05/22 06:21:27;;;;;;;3.70;2.85;;;15.60;62.50;;;;;;4972644;28;20044;-75
2022/05/22 06:23:54;;;;;;;3.42;2.45;;;15.70;62.60;;;;;;4941081;28;20419;-74
2022/05/22 06:26:38;;;;;;;4.00;3.22;;;15.70;62.60;;;;;;4958360;28;20124;-76
2022/05/22 06:29:37;;;;;;;3.83;2.50;;;15.70;62.60;;;;;;4972881;28;20031;-75
2022/05/22 06:32:30;;;;;;;4.20;2.92;;;15.70;62.60;;;;;;4948886;28;20423;-75
2022/05/22 06:35:07;;;;;;;4.00;2.88;;;15.70;62.60;;;;;;4989738;28;20375;-75
2022/05/22 06:37:52;;;;;;;4.53;2.70;;;15.70;62.60;;;;;;4968064;28;20454;-75
2022/05/22 06:40:39;;;;;;;2.72;2.22;;;15.70;62.60;;;;;;4973375;28;20061;-75
2022/05/22 06:43:23;;;;;;;2.78;2.13;;;15.70;62.70;;;;;;4973081;28;20089;-75
2022/05/22 06:46:15;;;;;;;2.78;2.35;;;15.80;62.70;;;;;;4956551;28;20043;-75
2022/05/22 06:49:02;;;;;;;2.83;2.30;;;15.80;62.70;;;;;;4970125;28;20117;-75
2022/05/22 06:51:48;;;;;;;3.50;2.22;;;15.80;62.70;;;;;;4960797;28;20038;-75
2022/05/22 06:54:34;;;;;;;;;;;15.80;62.70;;;;;;4971765;28;20518;-76
2022/05/22 06:57:19;;;;;;;2.13;1.92;;;15.80;62.50;;;;;;4972533;28;19913;-75
2022/05/22 06:59:58;;;;;;;;;;;15.80;62.50;;;;;;4971558;28;20456;-76
2022/05/22 07:02:43;;;;;;;3.28;2.10;;;15.80;62.50;;;;;;4973459;28;20270;-75
2022/05/22 07:05:22;;;;;;;4.07;2.00;;;15.80;62.50;;;;;;4971153;28;20085;-75
2022/05/22 07:08:17;;;;;;;2.63;2.10;;;15.80;62.70;;;;;;4972043;28;20023;-76
2022/05/22 07:13:55;;;;;;;2.95;2.25;;;15.90;62.80;;;;;;4971991;28;20054;-75
2022/05/22 07:16:38;;;;;;;2.33;2.00;;;15.90;62.80;;;;;;4956135;28;20027;-75
2022/05/22 07:19:18;;;;;;;3.33;2.30;;;16.00;62.90;;;;;;4971299;28;20086;-77
2022/05/22 07:21:57;;;;;;;3.28;2.40;;;16.00;62.90;;;;;;4956717;28;20116;-75
2022/05/22 07:24:44;;;;;;;2.70;2.15;;;16.00;62.90;;;;;;4968290;28;20026;-74
2022/05/22 07:27:16;;;;;;;2.50;2.00;;;16.00;62.90;;;;;;4971405;28;20407;-76
2022/05/22 07:29:56;;;;;;;4.13;2.40;;;16.10;62.90;;;;;;4941319;28;20035;-76
2022/05/22 07:32:41;;;;;;;3.33;2.40;;;16.10;62.90;;;;;;4971182;28;20037;-75
2022/05/22 07:35:14;;;;;;;2.17;1.98;;;16.10;62.80;;;;;;4967896;28;20033;-75
2022/05/22 07:37:59;;;;;;;2.42;1.90;;;16.20;62.80;;;;;;4972117;28;20049;-75
2022/05/22 07:40:44;;;;;;;2.83;2.13;;;16.20;62.70;;;;;;4955988;28;20100;-76
2022/05/22 07:43:27;;;;;;;3.15;2.38;;;16.20;62.70;;;;;;4956550;28;20502;-75
2022/05/22 07:46:05;;;;;;;2.10;1.85;;;16.30;62.70;;;;;;4941354;28;20022;-75
2022/05/22 07:48:38;;;;;;;2.90;2.00;;;16.40;62.70;;;;;;4938910;28;20384;-76
2022/05/22 07:51:29;;;;;;;3.22;2.15;;;16.40;62.60;;;;;;4967812;28;20034;-75
2022/05/22 07:54:40;;;;;;;2.47;1.65;;;16.50;62.50;;;;;;4957119;28;20030;-75
2022/05/22 07:57:26;;;;;;;2.53;1.70;;;16.50;62.40;;;;;;4967522;28;20050;-75
2022/05/22 08:00:13;;;;;;;2.83;1.60;;;16.60;62.30;;;;;;4944595;28;20109;-74
2022/05/22 08:02:43;;;;;;;3.65;1.98;;;16.70;62.30;;;;;;4970578;28;20046;-76
2022/05/22 08:05:11;;;;;;;2.05;1.85;;;16.70;62.20;;;;;;4970704;28;20062;-76
2022/05/22 08:07:42;;;;;;;2.67;1.50;;;16.80;62.30;;;;;;4955232;28;20496;-75
2022/05/22 08:10:14;;;;;;;2.17;1.63;;;16.90;62.10;;;;;;4968223;28;20529;-75
2022/05/22 08:12:46;;;;;;;2.78;1.58;;;17.00;62.10;;;;;;4954527;28;20042;-76
2022/05/22 08:15:25;;;;;;;1.75;1.30;;;17.10;62.10;;;;;;4955035;28;20126;-75
2022/05/22 08:17:58;;;;;;;3.20;1.83;;;17.20;61.90;;;;;;4954523;28;20095;-76
2022/05/22 08:20:25;;;;;;;1.58;1.38;;;17.20;61.80;;;;;;4969949;28;20362;-75
2022/05/22 08:23:09;;;;;;;2.70;1.60;;;17.30;61.80;;;;;;4955549;28;20067;-75
2022/05/22 08:25:48;;;;;;;1.83;1.33;;;17.40;61.70;;;;;;4971063;28;20046;-76
2022/05/22 08:28:15;;;;;;;3.10;1.38;;;17.50;61.60;;;;;;4970159;28;20022;-75
2022/05/22 08:30:41;;;;;;;1.52;1.30;;;17.60;61.50;;;;;;4969936;28;20037;-75
2022/05/22 08:33:08;;;;;;;3.33;1.50;;;17.70;61.50;;;;;;4970311;28;20093;-75
2022/05/22 08:35:36;;;;;;;1.73;1.35;;;17.80;61.40;;;;;;4970752;28;20037;-76
2022/05/22 08:38:04;;;;;;;1.73;1.45;;;17.90;61.40;;;;;;4969206;28;20021;-76
2022/05/22 08:40:58;;;;;;;1.63;1.33;;;18.00;61.30;;;;;;4969563;28;20066;-75
2022/05/22 08:43:34;;;;;;;1.90;1.33;;;18.10;61.30;;;;;;4971687;28;20118;-75
2022/05/22 08:46:14;;;;;;;1.85;1.33;;;18.20;61.20;;;;;;4969421;28;20085;-75
2022/05/22 08:48:46;;;;;;;1.98;1.30;;;18.30;61.20;;;;;;4969770;28;20049;-75
2022/05/22 08:51:20;;;;;;;1.60;1.10;;;18.40;61.00;;;;;;4969496;28;20018;-75
2022/05/22 08:53:58;;;;;;;1.73;1.20;;;18.50;60.90;;;;;;4969628;28;20034;-76
2022/05/22 08:59:34;;;;;;;1.83;1.20;;;18.70;60.80;;;;;;4970549;28;21822;-75
2022/05/22 09:02:24;;;;;;;1.65;1.23;;;18.80;60.70;;;;;;4971111;28;20081;-76
2022/05/22 09:04:56;;;;;;;1.20;1.10;;;18.90;60.60;;;;;;4968901;28;20043;-76
2022/05/22 09:07:53;;;;;;;1.27;1.10;;;19.00;60.50;;;;;;4969735;28;20109;-76
2022/05/22 09:10:24;;;;;;;1.05;0.98;;;19.10;60.50;;;;;;4969441;28;20286;-76
2022/05/22 09:12:53;;;;;;;1.20;1.10;;;19.20;60.40;;;;;;4969671;28;20074;-75
2022/05/22 09:15:28;;;;;;;1.35;1.10;;;19.30;60.30;;;;;;4971805;28;20029;-76
2022/05/22 09:17:57;;;;;;;2.75;1.10;;;19.50;60.20;;;;;;4969585;28;20026;-76
2022/05/22 09:20:33;;;;;;;3.13;1.00;;;19.60;60.20;;;;;;4969498;28;20077;-76
2022/05/22 09:23:26;;;;;;;1.15;0.90;;;19.60;60.10;;;;;;4969272;28;20085;-76
2022/05/22 09:26:06;;;;;;;1.52;0.98;;;19.70;60.10;;;;;;4969112;28;20058;-75
2022/05/22 09:28:54;;;;;;;1.23;0.80;;;19.80;59.90;;;;;;4970591;28;20042;-75
2022/05/22 09:31:30;;;;;;;1.15;0.98;;;20.00;59.90;;;;;;4972453;28;20391;-76
2022/05/22 09:34:31;;;;;;;1.55;1.10;;;20.10;59.80;;;;;;4966573;28;20030;-76
2022/05/22 09:37:21;;;;;;;0.85;0.80;;;20.20;59.70;;;;;;4937185;28;20046;-76
2022/05/22 09:40:41;;;;;;;1.45;1.00;;;20.30;59.60;;;;;;4987879;28;20038;-76
2022/05/22 09:43:44;;;;;;;1.27;0.90;;;20.40;59.60;;;;;;4890941;29;20033;-76
2022/05/22 09:46:22;;;;;;;1.33;0.93;;;20.60;59.60;;;;;;4973757;28;20035;-75
2022/05/22 09:49:10;;;;;;;1.40;0.88;;;20.60;59.30;;;;;;4972685;28;20533;-75
2022/05/22 09:52:04;;;;;;;0.80;0.80;;;20.70;59.20;;;;;;4971155;28;20022;-76
2022/05/22 09:54:46;;;;;;;1.90;0.98;;;20.90;59.30;;;;;;4974350;28;20027;-77
2022/05/22 09:57:32;;;;;;;1.10;0.88;;;21.00;59.20;;;;;;4974060;28;20030;-76
2022/05/22 10:00:13;;;;;;;1.00;0.90;;;21.10;59.10;;;;;;4973774;28;20109;-77
2022/05/22 10:02:51;;;;;;;1.33;0.98;;;21.20;59.10;;;;;;4974441;28;20043;-76
2022/05/22 10:05:45;;;;;;;1.67;0.90;;;21.30;58.90;;;;;;4965870;28;20099;-75
2022/05/22 10:08:29;;;;;;;1.33;0.93;;;21.40;58.90;;;;;;4973842;28;20023;-76
2022/05/22 10:11:25;;;;;;;1.27;0.80;;;21.50;58.80;;;;;;4972230;28;20463;-77
2022/05/22 10:14:27;;;;;;;0.80;0.80;;;21.60;58.80;;;;;;4972839;28;20045;-76
2022/05/22 10:16:55;;;;;;;1.67;0.80;;;21.80;58.70;;;;;;4983273;28;20110;-77
2022/05/22 10:19:45;;;;;;;1.35;0.88;;;21.90;58.50;;;;;;4973077;28;20559;-76
2022/05/22 10:22:30;;;;;;;1.38;1.00;;;22.00;58.40;;;;;;4973836;28;20035;-76
2022/05/22 10:25:07;;;;;;;1.63;0.95;;;22.10;58.40;;;;;;4973591;28;20026;-76
2022/05/22 10:27:39;;;;;;;1.25;1.00;;;22.20;58.30;;;;;;4973528;28;20061;-76
2022/05/22 10:30:21;;;;;;;0.95;0.93;;;22.30;58.20;;;;;;4980555;28;20030;-76
2022/05/22 10:32:53;;;;;;;2.53;1.20;;;22.40;58.10;;;;;;4967139;28;20027;-76
2022/05/22 10:35:45;;;;;;;1.58;0.98;;;22.50;58.00;;;;;;4973944;28;20031;-76
2022/05/22 10:38:17;;;;;;;1.13;0.98;;;22.60;58.00;;;;;;4969635;28;20451;-76
2022/05/22 10:43:37;;;;;;;2.05;1.00;;;22.90;57.90;;;;;;4971618;28;20035;-76
2022/05/22 10:46:04;;;;;;;1.08;0.90;;;23.00;57.80;;;;;;4973185;28;20444;-76
2022/05/22 10:48:31;;;;;;;2.05;1.08;;;23.10;57.80;;;;;;4971863;28;20049;-76
2022/05/22 10:51:04;;;;;;;1.50;0.95;;;23.20;57.70;;;;;;4955219;28;20038;-77
2022/05/22 10:53:47;;;;;;;1.83;0.88;;;23.20;57.60;;;;;;4971705;28;20138;-76
2022/05/22 10:56:23;;;;;;;1.17;0.90;;;23.30;57.60;;;;;;4972287;28;20030;-76
2022/05/22 10:59:19;;;;;;;1.58;1.00;;;23.50;57.60;;;;;;4971381;28;20026;-76
2022/05/22 11:01:57;;;;;;;2.67;1.27;;;23.50;57.60;;;;;;4970145;28;20034;-76
2022/05/22 11:04:37;;;;;;;1.83;1.00;;;23.60;57.40;;;;;;4971754;28;20030;-76
2022/05/22 11:07:06;;;;;;;1.13;0.90;;;23.70;57.40;;;;;;4973961;28;20134;-76
2022/05/22 11:09:40;;;;;;;1.52;1.02;;;23.80;57.20;;;;;;4973948;28;20518;-77
2022/05/22 11:12:10;;;;;;;2.53;1.58;;;23.80;57.20;;;;;;4972721;28;20058;-76
2022/05/22 11:14:36;;;;;;;2.42;1.25;;;23.90;57.10;;;;;;4971362;28;20371;-75
2022/05/22 11:17:10;;;;;;;1.98;1.20;;;24.00;57.20;;;;;;4955466;28;20111;-77
2022/05/22 11:19:39;;;;;;;1.58;1.08;;;24.00;57.20;;;;;;4971525;28;20027;-76
2022/05/22 11:22:36;;;;;;;1.52;1.10;;;24.00;57.20;;;;;;4971276;28;20042;-77
2022/05/22 11:25:33;;;;;;;2.33;0.98;;;24.10;57.30;;;;;;4973485;28;20039;-76
2022/05/22 11:28:20;;;;;;;1.70;1.20;;;24.10;57.40;;;;;;4966000;28;20039;-76
2022/05/22 11:30:55;;;;;;;2.13;1.15;;;24.20;57.30;;;;;;4969579;28;20505;-76
2022/05/22 11:33:59;;;;;;;2.72;1.17;;;24.20;57.40;;;;;;4970940;28;20031;-77
2022/05/22 11:36:46;;;;;;;1.17;0.90;;;24.30;57.70;;;;;;4941521;28;20023;-76
2022/05/22 11:39:39;;;;;;;1.95;1.17;;;24.30;57.70;;;;;;4968524;28;20037;-76
2022/05/22 11:42:15;;;;;;;2.13;1.20;;;24.30;57.80;;;;;;4966050;28;20102;-76
2022/05/22 11:45:23;;;;;;;2.30;1.20;;;24.40;58.30;;;;;;4972207;28;20038;-77
2022/05/22 11:48:01;;;;;;;1.48;1.20;;;24.40;57.70;;;;;;4948408;28;20604;-76
2022/05/22 11:50:50;;;;;;;2.88;1.30;;;24.40;57.60;;;;;;4966806;28;20046;-76
2022/05/22 11:53:31;;;;;;;1.85;1.20;;;24.40;57.80;;;;;;4965513;28;20058;-76
2022/05/22 11:56:16;;;;;;;1.60;1.20;;;24.40;57.60;;;;;;4970211;28;20346;-76
2022/05/22 11:59:02;;;;;;;2.90;1.50;;;24.40;57.40;;;;;;4970799;28;20025;-76
2022/05/22 12:01:31;;;;;;;2.47;1.48;;;24.40;57.40;;;;;;4966071;28;20573;-76
2022/05/22 12:04:28;;;;;;;1.33;1.23;;;24.50;57.40;;;;;;4971454;28;20062;-76
2022/05/22 12:07:35;;;;;;;1.95;1.40;;;24.50;57.50;;;;;;4954109;28;20025;-76
2022/05/22 12:10:16;;;;;;;1.95;1.48;;;24.50;57.50;;;;;;4930082;29;20078;-76
2022/05/22 12:12:48;;;;;;;1.38;1.00;;;24.50;57.70;;;;;;4959276;28;20145;-77
2022/05/22 12:15:24;;;;;;;1.92;1.30;;;24.50;57.60;;;;;;4969699;28;20058;-77
2022/05/22 12:17:58;;;;;;;2.58;1.55;;;24.50;57.60;;;;;;4951784;28;20054;-76
2022/05/22 12:20:45;;;;;;;2.35;1.40;;;24.50;57.70;;;;;;4964598;28;20127;-76
2022/05/22 12:23:16;;;;;;;4.03;1.67;;;24.50;57.70;;;;;;4975341;28;20122;-76
2022/05/22 12:25:53;;;;;;;2.65;1.60;;;24.50;57.70;;;;;;4970030;28;20037;-77
2022/05/22 12:28:41;;;;;;;2.42;1.73;;;24.50;57.60;;;;;;4969776;28;20059;-76
2022/05/22 12:31:17;;;;;;;2.55;1.60;;;24.60;57.60;;;;;;4971255;28;20065;-76
2022/05/22 12:33:44;;;;;;;3.28;1.70;;;24.60;57.40;;;;;;4966172;28;20032;-75
2022/05/22 12:36:11;;;;;;;3.83;1.98;;;24.60;57.40;;;;;;4969562;28;20455;-75
2022/05/22 12:38:55;;;;;;;2.53;1.70;;;24.60;57.30;;;;;;4970309;28;20034;-75
2022/05/22 12:41:51;;;;;;;3.65;1.73;;;24.60;57.30;;;;;;4983301;28;20052;-76
2022/05/22 12:44:17;;;;;;;2.13;1.67;;;24.60;57.30;;;;;;4953592;28;20029;-76
2022/05/22 12:46:44;;;;;;;2.75;2.00;;;24.60;57.20;;;;;;4971522;28;20031;-76
2022/05/22 12:49:19;;;;;;;3.17;2.05;;;24.60;57.30;;;;;;4953651;28;20035;-75
2022/05/22 12:51:56;;;;;;;1.95;1.50;;;24.60;57.40;;;;;;4971300;28;20455;-75
2022/05/22 12:54:25;;;;;;;2.05;1.70;;;24.60;57.90;;;;;;4966380;28;20031;-76
2022/05/22 12:56:52;;;;;;;2.75;1.88;;;24.60;57.20;;;;;;4969670;28;20027;-76
2022/05/22 12:59:27;;;;;;;3.60;2.10;;;24.60;57.10;;;;;;4969738;28;20027;-76
2022/05/22 13:01:56;;;;;;;2.97;1.80;;;24.50;57.00;;;;;;4971925;28;20077;-75
2022/05/22 13:04:36;;;;;;;2.97;2.00;;;24.60;57.10;;;;;;4969486;28;20027;-75
2022/05/22 13:07:11;;;;;;;3.17;1.92;;;24.60;57.10;;;;;;4953004;28;20031;-75
2022/05/22 13:09:46;;;;;;;2.80;1.55;;;24.60;57.00;;;;;;4969446;28;20039;-76
2022/05/22 13:12:18;;;;;;;3.25;1.75;;;24.60;57.10;;;;;;4969275;28;20046;-76
2022/05/22 13:14:54;;;;;;;2.72;2.08;;;24.60;56.90;;;;;;4969985;28;20027;-76
2022/05/22 13:17:35;;;;;;;2.58;1.80;;;24.60;56.90;;;;;;4969215;28;20543;-75
2022/05/22 13:20:02;;;;;;;3.25;1.90;;;24.50;56.90;;;;;;4969276;28;20035;-76
2022/05/22 13:22:38;;;;;;;2.95;1.98;;;24.60;56.90;;;;;;4969140;28;20037;-75
2022/05/22 13:25:09;;;;;;;2.10;1.83;;;24.60;56.70;;;;;;4970078;28;20034;-75
2022/05/22 13:27:39;;;;;;;3.75;1.98;;;24.60;56.60;;;;;;4969900;28;20026;-75
2022/05/22 13:30:20;;;;;;;3.40;2.05;;;24.60;56.50;;;;;;4970148;28;20530;-76
2022/05/22 13:33:07;;;;;;;3.40;2.10;;;24.60;56.50;;;;;;4969719;28;20042;-76
2022/05/22 13:35:37;;;;;;;2.72;1.70;;;24.60;56.40;;;;;;4970422;28;20567;-75
2022/05/22 13:38:12;;;;;;;2.97;1.75;;;24.60;56.50;;;;;;4975600;28;20026;-75
2022/05/22 13:40:40;;;;;;;;;;;24.50;56.40;;;;;;4975400;28;20058;-75
2022/05/22 13:43:21;;;;;;;2.40;1.70;;;24.50;56.50;;;;;;4953384;28;19973;-75